<?xml version="1.0" encoding="UTF-8" standalone="no" ?>
<gpx xmlns="http://www.topografix.com/GPX/1/1" xmlns:xsi="http://www.w3.org/2001/XMLSchema-instance" xsi:schemaLocation="http://www.topografix.com/GPX/1/1 http://www.topografix.com/GPX/1/1/gpx.xsd" version="1.1" creator="VisuGPX - https://www.visugpx.com">
  <metadata>
    <name>Les Sauvages / Tarare Gr2</name>
  </metadata>
  <trk>
    <name><![CDATA[Les Sauvages / Tarare Gr2]]></name>
    <trkseg>
      <trkpt lat="45.89376" lon="4.40036">
        <ele>432</ele>
        <time>2021-04-14T11:33:09+02:00</time>
      </trkpt>
      <trkpt lat="45.89421" lon="4.3994">
        <ele>444</ele>
        <time>2021-04-14T11:33:14+02:00</time>
      </trkpt>
      <trkpt lat="45.89446" lon="4.39832">
        <ele>454</ele>
        <time>2021-04-14T11:33:19+02:00</time>
      </trkpt>
      <trkpt lat="45.89454" lon="4.39723">
        <ele>459</ele>
        <time>2021-04-14T11:33:24+02:00</time>
      </trkpt>
      <trkpt lat="45.89467" lon="4.39716">
        <ele>463</ele>
        <time>2021-04-14T11:33:29+02:00</time>
      </trkpt>
      <trkpt lat="45.89498" lon="4.39873">
        <ele>471</ele>
        <time>2021-04-14T11:33:34+02:00</time>
      </trkpt>
      <trkpt lat="45.89522" lon="4.3991">
        <ele>471</ele>
        <time>2021-04-14T11:33:39+02:00</time>
      </trkpt>
      <trkpt lat="45.89558" lon="4.39903">
        <ele>474</ele>
        <time>2021-04-14T11:33:44+02:00</time>
      </trkpt>
      <trkpt lat="45.89585" lon="4.39841">
        <ele>483</ele>
        <time>2021-04-14T11:33:49+02:00</time>
      </trkpt>
      <trkpt lat="45.89609" lon="4.3962">
        <ele>505</ele>
        <time>2021-04-14T11:33:54+02:00</time>
      </trkpt>
      <trkpt lat="45.89621" lon="4.39564">
        <ele>508</ele>
        <time>2021-04-14T11:33:59+02:00</time>
      </trkpt>
      <trkpt lat="45.89903" lon="4.3918">
        <ele>560</ele>
        <time>2021-04-14T11:34:04+02:00</time>
      </trkpt>
      <trkpt lat="45.89966" lon="4.38953">
        <ele>587</ele>
        <time>2021-04-14T11:34:09+02:00</time>
      </trkpt>
      <trkpt lat="45.89972" lon="4.38768">
        <ele>596</ele>
        <time>2021-04-14T11:34:14+02:00</time>
      </trkpt>
      <trkpt lat="45.90079" lon="4.38644">
        <ele>607</ele>
        <time>2021-04-14T11:34:19+02:00</time>
      </trkpt>
      <trkpt lat="45.9012" lon="4.38579">
        <ele>615</ele>
        <time>2021-04-14T11:34:24+02:00</time>
      </trkpt>
      <trkpt lat="45.90121" lon="4.38472">
        <ele>619</ele>
        <time>2021-04-14T11:34:29+02:00</time>
      </trkpt>
      <trkpt lat="45.90139" lon="4.38412">
        <ele>623</ele>
        <time>2021-04-14T11:34:34+02:00</time>
      </trkpt>
      <trkpt lat="45.90182" lon="4.38365">
        <ele>630</ele>
        <time>2021-04-14T11:34:39+02:00</time>
      </trkpt>
      <trkpt lat="45.90475" lon="4.38289">
        <ele>667</ele>
        <time>2021-04-14T11:34:44+02:00</time>
      </trkpt>
      <trkpt lat="45.90511" lon="4.38251">
        <ele>671</ele>
        <time>2021-04-14T11:34:49+02:00</time>
      </trkpt>
      <trkpt lat="45.90986" lon="4.37187">
        <ele>760</ele>
        <time>2021-04-14T11:34:54+02:00</time>
      </trkpt>
      <trkpt lat="45.91039" lon="4.37161">
        <ele>763</ele>
        <time>2021-04-14T11:34:59+02:00</time>
      </trkpt>
      <trkpt lat="45.91102" lon="4.37178">
        <ele>762</ele>
        <time>2021-04-14T11:35:04+02:00</time>
      </trkpt>
      <trkpt lat="45.9118" lon="4.37084">
        <ele>771</ele>
        <time>2021-04-14T11:35:09+02:00</time>
      </trkpt>
      <trkpt lat="45.91219" lon="4.37073">
        <ele>770</ele>
        <time>2021-04-14T11:35:14+02:00</time>
      </trkpt>
      <trkpt lat="45.91268" lon="4.37139">
        <ele>770</ele>
        <time>2021-04-14T11:35:19+02:00</time>
      </trkpt>
      <trkpt lat="45.9135" lon="4.37287">
        <ele>764</ele>
        <time>2021-04-14T11:35:24+02:00</time>
      </trkpt>
      <trkpt lat="45.91541" lon="4.37416">
        <ele>767</ele>
        <time>2021-04-14T11:35:29+02:00</time>
      </trkpt>
      <trkpt lat="45.9166" lon="4.37521">
        <ele>766</ele>
        <time>2021-04-14T11:35:34+02:00</time>
      </trkpt>
      <trkpt lat="45.91729" lon="4.37616">
        <ele>758</ele>
        <time>2021-04-14T11:35:39+02:00</time>
      </trkpt>
      <trkpt lat="45.9196" lon="4.37817">
        <ele>732</ele>
        <time>2021-04-14T11:35:44+02:00</time>
      </trkpt>
      <trkpt lat="45.9205" lon="4.3782">
        <ele>729</ele>
        <time>2021-04-14T11:35:49+02:00</time>
      </trkpt>
      <trkpt lat="45.92143" lon="4.37755">
        <ele>723</ele>
        <time>2021-04-14T11:35:54+02:00</time>
      </trkpt>
      <trkpt lat="45.92559" lon="4.37729">
        <ele>726</ele>
        <time>2021-04-14T11:35:59+02:00</time>
      </trkpt>
      <trkpt lat="45.9261" lon="4.37726">
        <ele>723</ele>
        <time>2021-04-14T11:36:04+02:00</time>
      </trkpt>
      <trkpt lat="45.92664" lon="4.37756">
        <ele>720</ele>
        <time>2021-04-14T11:36:09+02:00</time>
      </trkpt>
      <trkpt lat="45.92689" lon="4.37846">
        <ele>722</ele>
        <time>2021-04-14T11:36:14+02:00</time>
      </trkpt>
      <trkpt lat="45.92755" lon="4.37848">
        <ele>727</ele>
        <time>2021-04-14T11:36:19+02:00</time>
      </trkpt>
      <trkpt lat="45.92831" lon="4.37856">
        <ele>734</ele>
        <time>2021-04-14T11:36:24+02:00</time>
      </trkpt>
      <trkpt lat="45.92909" lon="4.37925">
        <ele>751</ele>
        <time>2021-04-14T11:36:29+02:00</time>
      </trkpt>
      <trkpt lat="45.92939" lon="4.37983">
        <ele>762</ele>
        <time>2021-04-14T11:36:34+02:00</time>
      </trkpt>
      <trkpt lat="45.93046" lon="4.38041">
        <ele>779</ele>
        <time>2021-04-14T11:36:39+02:00</time>
      </trkpt>
      <trkpt lat="45.9314" lon="4.38082">
        <ele>798</ele>
        <time>2021-04-14T11:36:44+02:00</time>
      </trkpt>
      <trkpt lat="45.93186" lon="4.3812">
        <ele>802</ele>
        <time>2021-04-14T11:36:49+02:00</time>
      </trkpt>
      <trkpt lat="45.93267" lon="4.38133">
        <ele>808</ele>
        <time>2021-04-14T11:36:54+02:00</time>
      </trkpt>
      <trkpt lat="45.93467" lon="4.38307">
        <ele>817</ele>
        <time>2021-04-14T11:36:59+02:00</time>
      </trkpt>
      <trkpt lat="45.93616" lon="4.38616">
        <ele>846</ele>
        <time>2021-04-14T11:37:04+02:00</time>
      </trkpt>
      <trkpt lat="45.93716" lon="4.38723">
        <ele>854</ele>
        <time>2021-04-14T11:37:09+02:00</time>
      </trkpt>
      <trkpt lat="45.93538" lon="4.38846">
        <ele>830</ele>
        <time>2021-04-14T11:37:14+02:00</time>
      </trkpt>
      <trkpt lat="45.93355" lon="4.38874">
        <ele>800</ele>
        <time>2021-04-14T11:37:19+02:00</time>
      </trkpt>
      <trkpt lat="45.93204" lon="4.38869">
        <ele>772</ele>
        <time>2021-04-14T11:37:24+02:00</time>
      </trkpt>
      <trkpt lat="45.93179" lon="4.3879">
        <ele>764</ele>
        <time>2021-04-14T11:37:29+02:00</time>
      </trkpt>
      <trkpt lat="45.93095" lon="4.3885">
        <ele>753</ele>
        <time>2021-04-14T11:37:34+02:00</time>
      </trkpt>
      <trkpt lat="45.93081" lon="4.38904">
        <ele>750</ele>
        <time>2021-04-14T11:37:39+02:00</time>
      </trkpt>
      <trkpt lat="45.92943" lon="4.38987">
        <ele>730</ele>
        <time>2021-04-14T11:37:44+02:00</time>
      </trkpt>
      <trkpt lat="45.92854" lon="4.38835">
        <ele>714</ele>
        <time>2021-04-14T11:37:49+02:00</time>
      </trkpt>
      <trkpt lat="45.92801" lon="4.38906">
        <ele>715</ele>
        <time>2021-04-14T11:37:54+02:00</time>
      </trkpt>
      <trkpt lat="45.92728" lon="4.38929">
        <ele>718</ele>
        <time>2021-04-14T11:37:59+02:00</time>
      </trkpt>
      <trkpt lat="45.92658" lon="4.38925">
        <ele>729</ele>
        <time>2021-04-14T11:38:04+02:00</time>
      </trkpt>
      <trkpt lat="45.92541" lon="4.3889">
        <ele>744</ele>
        <time>2021-04-14T11:38:09+02:00</time>
      </trkpt>
      <trkpt lat="45.92544" lon="4.38931">
        <ele>749</ele>
        <time>2021-04-14T11:38:14+02:00</time>
      </trkpt>
      <trkpt lat="45.9249" lon="4.38987">
        <ele>759</ele>
        <time>2021-04-14T11:38:19+02:00</time>
      </trkpt>
      <trkpt lat="45.92383" lon="4.39105">
        <ele>747</ele>
        <time>2021-04-14T11:38:24+02:00</time>
      </trkpt>
      <trkpt lat="45.92371" lon="4.39154">
        <ele>741</ele>
        <time>2021-04-14T11:38:29+02:00</time>
      </trkpt>
      <trkpt lat="45.92428" lon="4.39131">
        <ele>748</ele>
        <time>2021-04-14T11:38:34+02:00</time>
      </trkpt>
      <trkpt lat="45.92358" lon="4.39199">
        <ele>736</ele>
        <time>2021-04-14T11:38:39+02:00</time>
      </trkpt>
      <trkpt lat="45.92298" lon="4.39206">
        <ele>732</ele>
        <time>2021-04-14T11:38:44+02:00</time>
      </trkpt>
      <trkpt lat="45.92278" lon="4.39229">
        <ele>730</ele>
        <time>2021-04-14T11:38:49+02:00</time>
      </trkpt>
      <trkpt lat="45.92198" lon="4.3924">
        <ele>728</ele>
        <time>2021-04-14T11:38:54+02:00</time>
      </trkpt>
      <trkpt lat="45.92063" lon="4.39435">
        <ele>731</ele>
        <time>2021-04-14T11:38:59+02:00</time>
      </trkpt>
      <trkpt lat="45.91798" lon="4.39624">
        <ele>684</ele>
        <time>2021-04-14T11:39:04+02:00</time>
      </trkpt>
      <trkpt lat="45.91769" lon="4.39631">
        <ele>680</ele>
        <time>2021-04-14T11:39:09+02:00</time>
      </trkpt>
      <trkpt lat="45.91753" lon="4.39646">
        <ele>678</ele>
        <time>2021-04-14T11:39:14+02:00</time>
      </trkpt>
      <trkpt lat="45.9172" lon="4.39628">
        <ele>675</ele>
        <time>2021-04-14T11:39:19+02:00</time>
      </trkpt>
      <trkpt lat="45.91693" lon="4.39665">
        <ele>674</ele>
        <time>2021-04-14T11:39:24+02:00</time>
      </trkpt>
      <trkpt lat="45.91644" lon="4.39714">
        <ele>675</ele>
        <time>2021-04-14T11:39:29+02:00</time>
      </trkpt>
      <trkpt lat="45.91474" lon="4.39779">
        <ele>691</ele>
        <time>2021-04-14T11:39:34+02:00</time>
      </trkpt>
      <trkpt lat="45.91411" lon="4.39871">
        <ele>688</ele>
        <time>2021-04-14T11:39:39+02:00</time>
      </trkpt>
      <trkpt lat="45.91404" lon="4.39935">
        <ele>687</ele>
        <time>2021-04-14T11:39:44+02:00</time>
      </trkpt>
      <trkpt lat="45.91219" lon="4.40364">
        <ele>724</ele>
        <time>2021-04-14T11:39:49+02:00</time>
      </trkpt>
      <trkpt lat="45.9121" lon="4.40425">
        <ele>725</ele>
        <time>2021-04-14T11:39:54+02:00</time>
      </trkpt>
      <trkpt lat="45.9119" lon="4.40553">
        <ele>722</ele>
        <time>2021-04-14T11:39:59+02:00</time>
      </trkpt>
      <trkpt lat="45.91113" lon="4.40665">
        <ele>713</ele>
        <time>2021-04-14T11:40:04+02:00</time>
      </trkpt>
      <trkpt lat="45.90956" lon="4.40789">
        <ele>696</ele>
        <time>2021-04-14T11:40:09+02:00</time>
      </trkpt>
      <trkpt lat="45.90905" lon="4.40877">
        <ele>687</ele>
        <time>2021-04-14T11:40:14+02:00</time>
      </trkpt>
      <trkpt lat="45.90836" lon="4.40961">
        <ele>682</ele>
        <time>2021-04-14T11:40:19+02:00</time>
      </trkpt>
      <trkpt lat="45.90821" lon="4.41023">
        <ele>683</ele>
        <time>2021-04-14T11:40:24+02:00</time>
      </trkpt>
      <trkpt lat="45.90581" lon="4.41315">
        <ele>661</ele>
        <time>2021-04-14T11:40:29+02:00</time>
      </trkpt>
      <trkpt lat="45.90541" lon="4.41442">
        <ele>647</ele>
        <time>2021-04-14T11:40:34+02:00</time>
      </trkpt>
      <trkpt lat="45.90324" lon="4.41826">
        <ele>603</ele>
        <time>2021-04-14T11:40:39+02:00</time>
      </trkpt>
      <trkpt lat="45.90321" lon="4.4192">
        <ele>597</ele>
        <time>2021-04-14T11:40:44+02:00</time>
      </trkpt>
      <trkpt lat="45.9029" lon="4.42017">
        <ele>598</ele>
        <time>2021-04-14T11:40:49+02:00</time>
      </trkpt>
      <trkpt lat="45.90273" lon="4.42038">
        <ele>599</ele>
        <time>2021-04-14T11:40:54+02:00</time>
      </trkpt>
      <trkpt lat="45.9025" lon="4.42124">
        <ele>594</ele>
        <time>2021-04-14T11:40:59+02:00</time>
      </trkpt>
      <trkpt lat="45.90117" lon="4.42341">
        <ele>567</ele>
        <time>2021-04-14T11:41:04+02:00</time>
      </trkpt>
      <trkpt lat="45.90126" lon="4.42648">
        <ele>507</ele>
        <time>2021-04-14T11:41:09+02:00</time>
      </trkpt>
      <trkpt lat="45.90118" lon="4.42716">
        <ele>493</ele>
        <time>2021-04-14T11:41:14+02:00</time>
      </trkpt>
      <trkpt lat="45.90015" lon="4.42918">
        <ele>447</ele>
        <time>2021-04-14T11:41:19+02:00</time>
      </trkpt>
      <trkpt lat="45.89896" lon="4.42999">
        <ele>413</ele>
        <time>2021-04-14T11:41:24+02:00</time>
      </trkpt>
      <trkpt lat="45.89885" lon="4.43062">
        <ele>405</ele>
        <time>2021-04-14T11:41:29+02:00</time>
      </trkpt>
      <trkpt lat="45.89782" lon="4.43094">
        <ele>402</ele>
        <time>2021-04-14T11:41:34+02:00</time>
      </trkpt>
      <trkpt lat="45.89793" lon="4.43156">
        <ele>397</ele>
        <time>2021-04-14T11:41:39+02:00</time>
      </trkpt>
      <trkpt lat="45.89851" lon="4.43186">
        <ele>393</ele>
        <time>2021-04-14T11:41:44+02:00</time>
      </trkpt>
      <trkpt lat="45.89866" lon="4.43223">
        <ele>393</ele>
        <time>2021-04-14T11:41:49+02:00</time>
      </trkpt>
    </trkseg>
  </trk>
</gpx>